Terminal Aerodrome Forecast
Issued by NWS Boise, ID

Home | Current Version | Previous Version | Text Only | Print | Product List | Glossary On
Versions: 1 2 3 4 5 6 7 8 9 10 11 12 13 14 15 16 17 18 19 20 21 22 23 24 25 26
000
FTUS45 KBOI 201731
TAFBOI
TAF
KBOI 201731Z 2018/2118 13010KT P6SM SKC
     FM210000 VRB05KT P6SM VCSH OVC150
     FM210900 14010KT P6SM -SHRA OVC050
     FM211300 31012G17KT P6SM -RA OVC040
     FM211700 31008KT P6SM VCSH OVC060=

USA.gov is the U.S. government's official web portal to all federal, state and local government web resources and services.